Portada
METAR-TAF:

METAR-TAF

Aeroports :

Ürümqi, Xina

latitud: 43-54N, longitud: 087-28E, altitud: 654 m

Observació

L'informe es va fer fa 21 minuts, a les 08:30 UTC
Vent 12 kt del Nord/Nord-Est, variant entre Nord i Est/Nord-Est
Temperatura 34°C
Humitat 11%
Pressió 1006 hPa
Visibilitat 10 km o més
sense núvols per sota de 1500 mi sense presència de cumulonimbus.

METAR: ZWWW 210830Z 03006MPS 010V070 CAVOK 34/M00 Q1006 NOSIG

Hora: 14:51 (08:51 UTC)

Pronòstic

L'informe es va fer fa 5 hores i 50 minuts, a les 03:01 UTC
Pronòstic vàlid del 21 a les 06 UTC al 22 a les 06 UTC
Vent 8 kt del Nord/Nord-Est
Visibilitat 10 km o més
sense núvols per sota de 1500 mi sense presència de cumulonimbus.
Evolucionant progressivament
l' 21 a les 13 UTC al 21 a les 14 UTC
Vent 8 kt del Sud/Sud-Est
Evolucionant progressivament
l' 22 a les 02 UTC al 22 a les 03 UTC
Vent 8 kt del Nord

TAF: ZWWW 210301Z 2106/2206 03004MPS CAVOK TX32/2109Z TN18/2123Z BECMG 2113/2114 16004MPS BECMG 2202/2203 36004MPS

Observacions i pronòstics meteorològics de més de 4000 aeroports (METAR i TAF).

Les estacions disponibles són els punts grocs i vermells al mapa.

Posi el ratolí al punt desitjat per veure el nom de l'estació.

Feu clic per veure les observacions i els pronòstics meteorològics.

Per canviar el mapa: feu clic els botons verds amb una creu de color negre per apropar; al botó verd amb un guió per allunyar la imatge; o en les fletxes verdes per a mapes adjacents.


METAR-TAF: